HALF-HOURLY OBSERVATIONS INDEX

058

North Coast

BALLINA AIRPORT AWS

Site: 058198
Alt: 1.3m
2km E of BALLINA


  Time     Wind        Temp  DP   Baro     Rain since   Rain past  Vis(m), Cloud(base in m), Weather
  local        km/h                         9am  last   hr   10m    
Mon 11:00  WSW  7/ 13  27.6 21.6  1014.6    0.0   0.0   0.0   0.0   10000|SC 750 SC 960 
Mon 11:30  SSE 13/ 19  27.8 23.0  1014.3    0.0   0.0   0.0   0.0   10000|SC 750 BR 900 
Mon 12:00  SSE 13/ 17  28.8 23.2  1014.1    0.0   0.0   0.0   0.0   10000|SC 900 
Mon 12:30   SE 15/ 20  29.0 23.7  1013.8    0.0   0.0   0.0   0.0   10000|SC 810 
Mon 13:00   SE 15/ 19  28.9 22.4  1013.7    0.0   0.0   0.0   0.0   10000 
Mon 13:30  ESE 17/ 20  29.0 23.2  1013.3    0.0   0.0   0.0   0.0   10000 
Mon 14:00    E 15/ 20  28.8 22.3  1012.8    0.0   0.0   0.0   0.0   10000 
Mon 14:30    E 15/ 20  28.9 22.4  1012.6    0.0   0.0   0.0   0.0   10000 
Mon 15:00    E 17/ 20  29.0 22.2  1012.3    0.0   0.0   0.0   0.0   10000 
Mon 15:30    E 17/ 22  29.2 23.2  1012.0    0.0   0.0   0.0   0.0   10000 
Mon 16:00  ENE 20/ 28  28.3 21.6  1011.7    0.0   0.0   0.0   0.0   10000 
Mon 16:30  ENE 20/ 26  28.6 22.6  1011.8    0.0   0.0   0.0   0.0   10000 

BYRON BAY (CAPE BYRON AWS)

Site: 058216
Alt: 95.0m
24km NNE of BALLINA


  Time     Wind        Temp  DP   Baro     Rain since   Rain past  Vis(m), Cloud(base in m), Weather
  local        km/h                         9am  last   hr   10m    
Mon 11:00  ESE 13/ 17  27.8 24.2  1015.4    0.0   0.0   0.0   0.0   ----- 
Mon 11:30  ESE 13/ 17  27.7 24.1  1015.2    0.2   0.2   0.2   0.2   ----- 
Mon 12:00  ESE 15/ 20  27.8 24.2  1015.1    0.2   0.0   0.2   0.0   ----- 
Mon 12:30  ESE 17/ 20  28.2 24.0  1014.9    0.2   0.0   0.0   0.0   ----- 
Mon 13:00    E 17/ 19  28.3 23.0  1014.7    0.2   0.0   0.0   0.0   ----- 
Mon 13:30    E 19/ 20  29.4 24.3  1014.4    0.2   0.0   0.0   0.0   ----- 
Mon 14:00  ENE 17/ 20  29.9 24.3  1014.1    0.2   0.0   0.0   0.0   ----- 
Mon 14:30  ENE 17/ 20  30.0 24.4  1013.6    0.2   0.0   0.0   0.0   ----- 
Mon 15:00    E 11/ 17  28.9 22.9  1013.4    0.2   0.0   0.0   0.0   ----- 
Mon 15:30  ENE 15/ 20  29.7 24.6  1013.1    0.2   0.0   0.0   0.0   ----- 
Mon 16:00    E  9/ 13  29.1 24.0  1013.0    0.2   0.0   0.0   0.0   ----- 
Mon 16:30    E 13/ 19  29.2 23.2  1012.8    0.2   0.0   0.0   0.0   ----- 

CASINO AIRPORT AWS

Site: 058208
Alt: 20.9m
3km S of CASINO


  Time     Wind        Temp  DP   Baro     Rain since   Rain past  Vis(m), Cloud(base in m), Weather
  local        km/h                         9am  last   hr   10m    
Mon 11:00  WNW  9/ 15  29.1 21.1  1014.8    0.0   0.0   0.0   0.0   ----- 
Mon 11:30  NNW  9/ 17  29.5 23.0  1014.6    0.0   0.0   0.0   0.0   ----- 
Mon 12:00    W  9/ 17  30.2 21.8  1014.2    0.0   0.0   0.0   0.0   ----- 
Mon 12:30    N  9/ 15  29.9 20.7  1013.8    0.0   0.0   0.0   0.0   ----- 
Mon 13:00    N  9/ 15  31.5 23.3  1013.4    0.0   0.0   0.0   0.0   ----- 
Mon 13:30    N  6/ 13  31.3 21.8  1013.0    0.0   0.0   0.0   0.0   ----- 
Mon 14:00    E  9/ 11  31.5 21.1  1012.5    0.0   0.0   0.0   0.0   ----- 
Mon 14:30    E  7/ 13  31.8 20.7  1012.0    0.0   0.0   0.0   0.0   ----- 
Mon 15:00  ENE 11/ 17  31.9 21.1  1011.5    0.0   0.0   0.0   0.0   ----- 
Mon 15:30   NE 11/ 20  32.9 22.0  1011.1    0.0   0.0   0.0   0.0   ----- 
Mon 16:00   NE  9/ 15  32.5 21.0  1010.9    0.0   0.0   0.0   0.0   ----- 
Mon 16:30    E  9/ 17  33.4 22.5  1010.7    0.0   0.0   0.0   0.0   ----- 

EVANS HEAD RAAF BOMBING RANGE AWS

Site: 058212
Alt: 62.5m
41km SSW of BALLINA


  Time     Wind        Temp  DP   Baro     Rain since   Rain past  Vis(m), Cloud(base in m), Weather
  local        km/h                         9am  last   hr   10m    
Mon 11:00    E  7/  9  28.3 23.0  1014.9    0.0   0.0   0.0   0.0   ----- 
Mon 11:30   SE 11/ 17  27.6 22.8  1014.6    0.0   0.0   0.0   0.0   ----- 
Mon 12:00  ESE 13/ 17  28.9 23.1  1014.3    0.0   0.0   0.0   0.0   ----- 
Mon 12:30  ESE 13/ 19  28.6 23.1  1014.1    0.0   0.0   0.0   0.0   ----- 
Mon 13:00    E 15/ 20  28.3 22.3  1013.8    0.0   0.0   0.0   0.0   ----- 
Mon 13:30    E 15/ 20  28.8 23.0  1013.4    0.0   0.0   0.0   0.0   ----- 
Mon 14:00    E 19/ 24  28.3 22.5  1013.0    0.0   0.0   0.0   0.0   ----- 
Mon 14:30    E 19/ 24  28.2 22.2  1012.6    0.0   0.0   0.0   0.0   ----- 
Mon 15:00    E 17/ 22  28.9 22.4  1012.3    0.0   0.0   0.0   0.0   ----- 
Mon 15:30    E 19/ 26  28.6 22.6  1012.0    0.0   0.0   0.0   0.0   ----- 
Mon 16:00  ENE 19/ 26  28.2 22.4  1011.9    0.0   0.0   0.0   0.0   ----- 
Mon 16:30   NE 20/ 28  28.1 22.1  1011.8    0.0   0.0   0.0   0.0   ----- 

GRAFTON AIRPORT AWS

Site: 058161
Alt: 25.1m
13km SE of GRAFTON


  Time     Wind        Temp  DP   Baro     Rain since   Rain past  Vis(m), Cloud(base in m), Weather
  local        km/h                         9am  last   hr   10m    
Mon 11:00    N 11/ 22  29.2 20.1  1014.7    0.0   0.0   0.0   0.0   10000 
Mon 11:30   NW  7/ 17  30.6 21.1  1014.3    0.0   0.0   0.0   0.0   10000 
Mon 12:00    N  9/ 19  31.0 21.5  1013.9    0.0   0.0   0.0   0.0   10000 
Mon 12:30    N 11/ 17  31.1 21.0  1013.6    0.0   0.0   0.0   0.0   10000 
Mon 13:00    N 11/ 19  32.0 22.1  1013.3    0.0   0.0   0.0   0.0   10000 
Mon 13:30  NNE  9/ 15  32.2 21.7  1012.8    0.0   0.0   0.0   0.0   10000 
Mon 14:00    N  9/ 17  32.7 22.2  1012.3    0.0   0.0   0.0   0.0   10000 
Mon 14:30  NNE  9/ 13  33.7 22.1  1011.9    0.0   0.0   0.0   0.0   10000 
Mon 15:00  NNW  7/ 13  32.6 20.8  1011.5    0.0   0.0   0.0   0.0   10000|SC1770 SC2070 BR2550 
Mon 15:30    E 17/ 24  32.4 22.5  1011.3    0.0   0.0   0.0   0.0   10000|BR1560 BR1860 
Mon 16:00    E 13/ 19  31.0 22.3  1011.3    0.0   0.0   0.0   0.0   10000|SC1770 BR2130 OC2820 
Mon 16:30  ESE 13/ 20  31.3 22.9  1011.5    0.0   0.0   0.0   0.0   10000|SC2040 BR2610 BR3000 

GRAFTON RESEARCH STN

Site: 058077
Alt: 25.0m
7km NNE of GRAFTON


  Time     Wind        Temp  DP   Baro     Rain since   Rain past  Vis(m), Cloud(base in m), Weather
  local        km/h                         9am  last   hr   10m    
Mon 11:00    W 11/ 17  28.7 20.4  ------    0.0   0.0   0.0   0.0   ----- 
Mon 11:30   NW  7/ 15  29.7 21.4  ------    0.0   0.0   0.0   0.0   ----- 
Mon 12:00  WNW  7/ 15  30.6 21.1  ------    0.0   0.0   0.0   0.0   ----- 
Mon 12:30  WNW  9/ 19  30.7 21.8  ------    0.0   0.0   0.0   0.0   ----- 
Mon 13:00    N  6/  9  31.6 21.5  ------    0.0   0.0   0.0   0.0   ----- 
Mon 13:30  ESE  9/ 15  32.0 22.4  ------    0.0   0.0   0.0   0.0   ----- 
Mon 14:00   NE  4/ 13  32.7 21.5  ------    0.0   0.0   0.0   0.0   ----- 
Mon 14:30    E 11/ 17  32.9 22.4  ------    0.0   0.0   0.0   0.0   ----- 
Mon 15:00    E  9/ 17  32.9 23.2  ------    0.0   0.0   0.0   0.0   ----- 
Mon 15:30    E  9/ 17  33.1 22.2  ------    0.0   0.0   0.0   0.0   ----- 
Mon 16:00  ENE 13/ 20  33.1 24.0  ------    0.0   0.0   0.0   0.0   ----- 
Mon 16:30  ENE 15/ 28  30.6 23.0  ------    0.0   0.0   0.0   0.0   ----- 

LISMORE AIRPORT AWS

Site: 058214
Alt: 9.2m
3km SW of LISMORE


  Time     Wind        Temp  DP   Baro     Rain since   Rain past  Vis(m), Cloud(base in m), Weather
  local        km/h                         9am  last   hr   10m    
Mon 11:00    W  9/ 13  27.7 22.2  1014.4    0.0   0.0   0.0   0.0   10000|BR 750 
Mon 11:30    W  7/ 13  28.3 21.8  1014.2    0.0   0.0   0.0   0.0   10000|BR 810 
Mon 12:00    W  9/ 13  29.1 22.6  1013.9    0.0   0.0   0.0   0.0   10000|BR 930 
Mon 12:30  NNE  7/ 11  30.3 22.5  1013.5    0.0   0.0   0.0   0.0   10000|SC 930 
Mon 13:00  NNW  6/ 11  30.5 21.9  1013.3    0.0   0.0   0.0   0.0   10000|SC 990 
Mon 13:30    N  7/ 15  30.9 22.2  1012.8    0.0   0.0   0.0   0.0   10000 
Mon 14:00  NNE  7/ 11  31.4 21.6  1012.4    0.0   0.0   0.0   0.0   10000 
Mon 14:30   SE  7/  9  31.5 21.1  1011.9    0.0   0.0   0.0   0.0   10000 
Mon 15:00  ESE  9/ 13  32.1 21.6  1011.5    0.0   0.0   0.0   0.0   10000 
Mon 15:30  ESE  9/ 11  32.4 22.5  1010.9    0.0   0.0   0.0   0.0   10000 
Mon 16:00    E 11/ 20  32.0 22.1  1010.8    0.0   0.0   0.0   0.0   10000|SC1410 
Mon 16:30  ENE 20/ 30  30.6 23.5  1010.7    0.0   0.0   0.0   0.0   10000 

YAMBA PILOT STATION

Site: 058012
Alt: 27.4m
50km NE of GRAFTON


  Time     Wind        Temp  DP   Baro     Rain since   Rain past  Vis(m), Cloud(base in m), Weather
  local        km/h                         9am  last   hr   10m    
Mon 11:00   NE  9/ 13  28.6 22.6  1014.8    0.0   0.0   0.0   0.0   ----- 
Mon 11:30    E  9/ 13  28.3 22.1  1014.5    0.0   0.0   0.0   0.0   ----- 
Mon 12:00  ENE 11/ 15  28.4 22.6  1014.1    0.0   0.0   0.0   0.0   ----- 
Mon 12:30  ENE 13/ 19  28.5 23.2  1013.8    0.0   0.0   0.0   0.0   ----- 
Mon 13:00    E 11/ 17  29.0 23.4  1013.8    0.0   0.0   0.0   0.0   ----- 
Mon 13:30    E 13/ 17  28.4 22.6  1013.4    0.0   0.0   0.0   0.0   ----- 
Mon 14:00    E 11/ 15  28.8 23.2  1013.1    0.0   0.0   0.0   0.0   ----- 
Mon 14:30    E 13/ 20  28.5 23.2  1012.7    0.0   0.0   0.0   0.0   ----- 
Mon 15:00    E 13/ 20  28.8 23.2  1012.1    0.0   0.0   0.0   0.0   ----- 
Mon 15:30    E 13/ 19  28.6 23.1  1012.0    0.0   0.0   0.0   0.0   ----- 
Mon 16:00    E 13/ 19  28.7 23.4  1011.7    0.0   0.0   0.0   0.0   ----- 
Mon 16:30    E 13/ 17  28.6 22.8  1011.9    0.0   0.0   0.0   0.0   -----